Time;durP1;ratioP1;P1;durP2;ratioP2;P2;SDS_P1;SDS_P2;PMS_P1;PMS_P2;Temp;Humidity;BMP_temperature;BMP_pressure;BME280_temperature;BME280_humidity;BME280_pressure;Samples;Min_cycle;Max_cycle;Signal;HPM_P1;HPM_P2
2021/11/04 00:01:32;;;;;;;0.70;0.13;;;;;;;;;;5036101;28;20025;-60
2021/11/04 00:03:57;;;;;;;0.93;0.30;;;;;;;;;;5035990;28;20037;-61
2021/11/04 00:06:22;;;;;;;0.57;0.40;;;;;;;;;;5036203;28;20021;-61
2021/11/04 00:08:47;;;;;;;0.75;0.25;;;;;;;;;;5035966;28;20029;-61
2021/11/04 00:11:13;;;;;;;0.77;0.32;;;;;;;;;;5035997;28;20009;-61
2021/11/04 00:13:38;;;;;;;0.52;0.10;;;;;;;;;;5035959;28;20092;-60
2021/11/04 00:16:08;;;;;;;1.13;0.20;;;;;;;;;;5035933;28;20021;-61
2021/11/04 00:18:33;;;;;;;0.50;0.10;;;;;;;;;;5035887;28;20021;-61
2021/11/04 00:20:59;;;;;;;1.00;0.22;;;;;;;;;;5035873;28;20092;-60
2021/11/04 00:23:24;;;;;;;1.15;0.10;;;;;;;;;;5036011;28;20022;-61
2021/11/04 00:25:49;;;;;;;0.45;0.15;;;;;;;;;;5035508;28;20071;-61
2021/11/04 00:28:15;;;;;;;1.35;0.30;;;;;;;;;;5035796;28;20031;-61
2021/11/04 00:30:40;;;;;;;1.42;0.45;;;;;;;;;;5035199;28;20052;-61
2021/11/04 00:33:05;;;;;;;1.17;0.35;;;;;;;;;;5035829;28;20101;-61
2021/11/04 00:35:31;;;;;;;0.73;0.40;;;;;;;;;;5035905;28;20039;-60
2021/11/04 00:37:56;;;;;;;4.37;0.73;;;;;;;;;;5035559;28;20358;-60
2021/11/04 00:40:22;;;;;;;1.23;0.52;;;;;;;;;;5035625;28;20261;-61
2021/11/04 00:42:47;;;;;;;0.75;0.22;;;;;;;;;;5035520;28;20376;-61
2021/11/04 00:45:13;;;;;;;0.82;0.30;;;;;;;;;;5035572;28;20036;-61
2021/11/04 00:47:38;;;;;;;1.33;0.35;;;;;;;;;;5035224;28;20037;-61
2021/11/04 00:50:04;;;;;;;0.43;0.20;;;;;;;;;;5035046;28;20013;-61
2021/11/04 00:52:29;;;;;;;1.77;0.20;;;;;;;;;;5035401;28;20024;-61
2021/11/04 00:54:54;;;;;;;1.00;0.20;;;;;;;;;;5034987;28;20372;-60
2021/11/04 00:57:20;;;;;;;0.55;0.30;;;;;;;;;;5035332;28;20044;-60
2021/11/04 00:59:45;;;;;;;1.00;0.20;;;;;;;;;;5035115;28;20026;-61
2021/11/04 01:02:10;;;;;;;1.58;0.20;;;;;;;;;;5035000;28;20049;-61
2021/11/04 01:04:35;;;;;;;0.38;0.10;;;;;;;;;;5035165;28;20021;-61
2021/11/04 01:07:00;;;;;;;0.83;0.20;;;;;;;;;;5033731;28;20519;-61
2021/11/04 01:09:26;;;;;;;1.42;0.30;;;;;;;;;;5035057;28;20292;-60
2021/11/04 01:11:51;;;;;;;1.23;0.10;;;;;;;;;;5034463;28;20472;-61
2021/11/04 01:14:17;;;;;;;1.40;0.20;;;;;;;;;;5034650;28;20253;-61
2021/11/04 01:16:42;;;;;;;0.90;0.20;;;;;;;;;;5035070;28;20044;-61
2021/11/04 01:19:08;;;;;;;0.35;0.32;;;;;;;;;;5035010;28;20021;-61
2021/11/04 01:21:34;;;;;;;0.95;0.30;;;;;;;;;;5033678;28;20063;-60
2021/11/04 01:23:59;;;;;;;2.78;0.20;;;;;;;;;;5034298;28;20029;-60
2021/11/04 01:26:24;;;;;;;2.15;0.47;;;;;;;;;;5034551;28;20021;-61
2021/11/04 01:28:49;;;;;;;0.65;0.15;;;;;;;;;;5034212;28;20137;-61
2021/11/04 01:31:14;;;;;;;1.48;0.50;;;;;;;;;;5034679;28;20487;-61
2021/11/04 01:33:40;;;;;;;0.43;0.13;;;;;;;;;;5034572;28;20021;-61
2021/11/04 01:36:05;;;;;;;0.10;0.10;;;;;;;;;;5034594;28;20346;-60
2021/11/04 01:38:31;;;;;;;0.57;0.20;;;;;;;;;;5034483;28;20102;-60
2021/11/04 01:40:56;;;;;;;0.57;0.30;;;;;;;;;;5034319;28;20456;-60
2021/11/04 01:43:22;;;;;;;0.93;0.35;;;;;;;;;;5033204;28;20079;-60
2021/11/04 01:45:48;;;;;;;0.75;0.10;;;;;;;;;;5034179;28;20503;-61
2021/11/04 01:48:13;;;;;;;0.38;0.10;;;;;;;;;;5034201;28;20021;-61
2021/11/04 01:50:38;;;;;;;0.47;0.20;;;;;;;;;;5033931;28;20079;-60
2021/11/04 01:53:04;;;;;;;0.85;0.28;;;;;;;;;;5034188;28;20439;-61
2021/11/04 01:55:29;;;;;;;1.35;0.20;;;;;;;;;;5034047;28;20021;-61
2021/11/04 01:57:56;;;;;;;0.03;0.03;;;;;;;;;;5034028;28;20032;-61
2021/11/04 02:00:23;;;;;;;1.00;0.10;;;;;;;;;;5043811;23;20033;-60
2021/11/04 02:03:14;;;;;;;2.08;0.65;;;;;;;;;;5070521;28;20719;-59
2021/11/04 02:05:44;;;;;;;1.85;0.13;;;;;;;;;;5070491;28;20472;-59
2021/11/04 02:08:14;;;;;;;0.93;0.15;;;;;;;;;;5070557;28;20035;-60
2021/11/04 02:10:42;;;;;;;0.17;0.10;;;;;;;;;;5070187;28;20455;-60
2021/11/04 02:13:29;;;;;;;1.40;0.20;;;;;;;;;;5070608;28;20476;-60
2021/11/04 02:15:56;;;;;;;0.65;0.20;;;;;;;;;;5070246;28;20551;-59
2021/11/04 02:18:23;;;;;;;0.63;0.20;;;;;;;;;;5070352;28;20052;-60
2021/11/04 02:20:57;;;;;;;0.63;0.17;;;;;;;;;;5069741;28;20013;-60
2021/11/04 02:23:25;;;;;;;0.95;0.17;;;;;;;;;;5070175;28;20467;-60
2021/11/04 02:25:52;;;;;;;2.83;0.20;;;;;;;;;;5070102;28;20025;-60
2021/11/04 02:28:19;;;;;;;1.27;0.30;;;;;;;;;;5070200;28;20060;-59
2021/11/04 02:30:45;;;;;;;1.40;0.30;;;;;;;;;;5070041;28;20063;-59
2021/11/04 02:33:10;;;;;;;1.17;0.20;;;;;;;;;;5069602;28;20017;-60
2021/11/04 02:35:36;;;;;;;1.42;0.30;;;;;;;;;;5069952;28;20020;-59
2021/11/04 02:38:02;;;;;;;2.85;0.75;;;;;;;;;;5069884;28;20460;-59
2021/11/04 02:40:27;;;;;;;0.63;0.10;;;;;;;;;;5068708;28;20025;-60
2021/11/04 02:42:53;;;;;;;2.08;0.10;;;;;;;;;;5068201;28;20021;-60
2021/11/04 02:45:22;;;;;;;1.80;0.10;;;;;;;;;;5069821;28;20017;-60
2021/11/04 02:47:48;;;;;;;0.88;0.20;;;;;;;;;;5069567;28;20036;-59
2021/11/04 02:50:14;;;;;;;1.05;0.20;;;;;;;;;;5069438;28;20009;-59
2021/11/04 02:52:39;;;;;;;2.30;0.20;;;;;;;;;;5069548;28;20028;-60
2021/11/04 02:55:05;;;;;;;0.30;0.03;;;;;;;;;;5069546;28;20031;-60
2021/11/04 02:57:31;;;;;;;1.17;0.45;;;;;;;;;;5069580;28;20307;-60
2021/11/04 02:59:56;;;;;;;1.27;0.17;;;;;;;;;;5069055;28;20016;-60
2021/11/04 03:02:22;;;;;;;0.98;0.20;;;;;;;;;;5069165;28;20055;-60
2021/11/04 03:04:47;;;;;;;0.63;0.10;;;;;;;;;;5069121;28;20027;-60
2021/11/04 03:07:12;;;;;;;1.10;0.10;;;;;;;;;;5069372;28;20403;-60
2021/11/04 03:09:38;;;;;;;1.35;0.75;;;;;;;;;;5069169;28;20017;-59
2021/11/04 03:12:04;;;;;;;1.50;0.60;;;;;;;;;;5068329;28;20452;-60
2021/11/04 03:14:29;;;;;;;0.50;0.32;;;;;;;;;;5055530;28;20028;-59
2021/11/04 03:16:55;;;;;;;1.35;0.10;;;;;;;;;;5055555;28;20495;-60
2021/11/04 03:19:21;;;;;;;1.88;0.25;;;;;;;;;;5056035;28;20021;-60
2021/11/04 03:21:48;;;;;;;1.80;0.20;;;;;;;;;;5055436;28;20044;-60
2021/11/04 03:24:18;;;;;;;3.10;0.20;;;;;;;;;;5055893;28;20017;-60
2021/11/04 03:26:44;;;;;;;0.47;0.20;;;;;;;;;;5055647;28;20008;-60
2021/11/04 03:29:10;;;;;;;0.68;0.00;;;;;;;;;;5055609;28;20051;-60
2021/11/04 03:31:36;;;;;;;2.17;0.10;;;;;;;;;;5055351;28;20032;-60
2021/11/04 03:34:03;;;;;;;1.35;0.13;;;;;;;;;;5055586;28;20032;-60
2021/11/04 03:36:28;;;;;;;0.90;0.10;;;;;;;;;;5055572;28;20021;-59
2021/11/04 03:38:54;;;;;;;1.52;0.08;;;;;;;;;;5055091;28;20039;-60
2021/11/04 03:41:19;;;;;;;1.48;0.10;;;;;;;;;;5055490;28;20032;-60
2021/11/04 03:43:45;;;;;;;0.95;0.10;;;;;;;;;;5055190;28;20021;-60
2021/11/04 03:46:11;;;;;;;2.55;0.13;;;;;;;;;;5055529;28;20029;-59
2021/11/04 03:48:43;;;;;;;1.45;0.10;;;;;;;;;;5054971;28;20013;-60
2021/11/04 03:51:09;;;;;;;1.45;0.10;;;;;;;;;;5055529;28;20025;-59
2021/11/04 03:53:35;;;;;;;4.15;0.40;;;;;;;;;;5055205;28;20053;-60
2021/11/04 03:56:01;;;;;;;0.50;0.10;;;;;;;;;;5055106;28;20024;-60
2021/11/04 03:58:26;;;;;;;0.82;0.13;;;;;;;;;;5054920;28;20041;-61
2021/11/04 04:00:53;;;;;;;1.73;0.20;;;;;;;;;;5054766;28;20041;-60
2021/11/04 04:03:19;;;;;;;1.17;0.30;;;;;;;;;;5054829;28;20101;-59
2021/11/04 04:05:56;;;;;;;1.95;0.20;;;;;;;;;;5054916;28;20017;-60
2021/11/04 04:08:22;;;;;;;2.10;0.52;;;;;;;;;;5054805;28;20056;-60
2021/11/04 04:10:47;;;;;;;1.13;0.10;;;;;;;;;;5054797;28;20060;-59
2021/11/04 04:13:12;;;;;;;0.70;0.13;;;;;;;;;;5054902;28;20291;-60
2021/11/04 04:15:37;;;;;;;0.50;0.08;;;;;;;;;;5054850;28;20025;-61
2021/11/04 04:18:02;;;;;;;0.38;0.20;;;;;;;;;;5054750;28;20025;-61
2021/11/04 04:20:28;;;;;;;0.65;0.10;;;;;;;;;;5054908;28;20048;-60
2021/11/04 04:22:53;;;;;;;0.98;0.30;;;;;;;;;;5054321;28;20471;-60
2021/11/04 04:25:18;;;;;;;1.38;0.20;;;;;;;;;;5053727;28;20367;-60
2021/11/04 04:27:43;;;;;;;0.70;0.10;;;;;;;;;;5054602;28;20025;-61
2021/11/04 04:30:09;;;;;;;0.85;0.20;;;;;;;;;;5054734;28;20498;-60
2021/11/04 04:32:34;;;;;;;3.45;0.30;;;;;;;;;;5054460;28;20357;-60
2021/11/04 04:34:59;;;;;;;1.98;0.20;;;;;;;;;;5054423;28;20052;-61
2021/11/04 04:37:25;;;;;;;0.60;0.20;;;;;;;;;;5054503;28;20419;-61
2021/11/04 04:39:50;;;;;;;0.20;0.10;;;;;;;;;;5054071;28;20028;-61
2021/11/04 04:42:15;;;;;;;1.02;0.10;;;;;;;;;;5054247;28;20495;-60
2021/11/04 04:44:40;;;;;;;0.87;0.07;;;;;;;;;;5054159;28;20020;-60
2021/11/04 04:47:05;;;;;;;3.28;0.50;;;;;;;;;;5053952;28;20711;-61
2021/11/04 04:49:31;;;;;;;0.30;0.10;;;;;;;;;;5054247;28;20049;-60
2021/11/04 04:51:56;;;;;;;1.50;0.15;;;;;;;;;;5053757;28;20017;-61
2021/11/04 04:54:22;;;;;;;0.20;0.10;;;;;;;;;;5054218;28;20025;-61
2021/11/04 04:56:47;;;;;;;1.55;0.30;;;;;;;;;;5053859;28;20032;-61
2021/11/04 04:59:12;;;;;;;1.60;0.22;;;;;;;;;;5053838;28;20064;-61
2021/11/04 05:01:37;;;;;;;0.85;0.20;;;;;;;;;;5053689;28;20095;-61
2021/11/04 05:04:02;;;;;;;0.50;0.10;;;;;;;;;;5053837;28;20066;-60
2021/11/04 05:06:28;;;;;;;0.65;0.10;;;;;;;;;;5053750;28;20439;-60
2021/11/04 05:08:53;;;;;;;1.17;0.40;;;;;;;;;;5053740;28;20017;-61
2021/11/04 05:11:18;;;;;;;0.47;0.10;;;;;;;;;;5053744;28;20455;-60
2021/11/04 05:13:43;;;;;;;1.40;0.10;;;;;;;;;;5053490;28;20110;-62
2021/11/04 05:16:09;;;;;;;2.08;0.47;;;;;;;;;;5053780;28;20053;-61
2021/11/04 05:18:34;;;;;;;1.60;0.20;;;;;;;;;;5053598;28;20017;-61
2021/11/04 05:20:59;;;;;;;1.65;0.45;;;;;;;;;;5053457;28;20182;-61
2021/11/04 05:23:24;;;;;;;0.32;0.10;;;;;;;;;;5053627;28;20092;-61
2021/11/04 05:25:50;;;;;;;1.23;0.10;;;;;;;;;;5053498;28;20486;-60
2021/11/04 05:28:16;;;;;;;1.30;0.08;;;;;;;;;;5053305;28;20250;-60
2021/11/04 05:30:42;;;;;;;0.60;0.10;;;;;;;;;;5053367;28;20021;-60
2021/11/04 05:33:08;;;;;;;0.43;0.03;;;;;;;;;;5053572;28;20028;-61
2021/11/04 05:35:34;;;;;;;1.52;0.20;;;;;;;;;;5052800;28;20017;-60
2021/11/04 05:37:59;;;;;;;1.75;0.15;;;;;;;;;;5053151;28;20032;-61
2021/11/04 05:40:24;;;;;;;1.38;0.30;;;;;;;;;;5053321;28;20506;-61
2021/11/04 05:42:50;;;;;;;1.08;0.10;;;;;;;;;;5053176;28;20663;-60
2021/11/04 05:45:15;;;;;;;0.90;0.10;;;;;;;;;;5053285;28;20469;-60
2021/11/04 05:47:41;;;;;;;0.30;0.03;;;;;;;;;;5053212;28;20024;-61
2021/11/04 05:50:06;;;;;;;1.92;0.20;;;;;;;;;;5053092;28;20029;-60
2021/11/04 05:52:31;;;;;;;0.10;0.00;;;;;;;;;;5053204;28;20025;-60
2021/11/04 05:54:56;;;;;;;0.57;0.32;;;;;;;;;;5053099;28;20059;-60
2021/11/04 05:57:22;;;;;;;1.17;0.10;;;;;;;;;;5053242;28;20490;-61
2021/11/04 05:59:47;;;;;;;2.10;0.17;;;;;;;;;;5052901;28;20464;-61
2021/11/04 06:02:12;;;;;;;1.13;0.10;;;;;;;;;;5052747;28;20396;-60
2021/11/04 06:04:42;;;;;;;0.20;0.10;;;;;;;;;;5053047;28;20266;-60
2021/11/04 06:07:08;;;;;;;1.75;0.40;;;;;;;;;;5053095;28;20021;-60
2021/11/04 06:09:33;;;;;;;0.50;0.10;;;;;;;;;;5053002;28;20067;-61
2021/11/04 06:11:58;;;;;;;0.20;0.10;;;;;;;;;;5052691;28;20017;-60
2021/11/04 06:14:24;;;;;;;0.77;0.20;;;;;;;;;;5053145;28;20464;-60
2021/11/04 06:16:49;;;;;;;0.63;0.20;;;;;;;;;;5052955;28;20464;-60
2021/11/04 06:19:14;;;;;;;0.50;0.10;;;;;;;;;;5052714;28;20043;-61
2021/11/04 06:21:39;;;;;;;0.77;0.10;;;;;;;;;;5052654;28;20464;-61
2021/11/04 06:24:05;;;;;;;0.70;0.10;;;;;;;;;;5052812;28;20254;-61
2021/11/04 06:26:30;;;;;;;0.08;0.00;;;;;;;;;;5052852;28;20025;-60
2021/11/04 06:28:55;;;;;;;0.32;0.05;;;;;;;;;;5052704;28;20736;-60
2021/11/04 06:31:20;;;;;;;0.55;0.20;;;;;;;;;;5052722;28;20096;-60
2021/11/04 06:33:46;;;;;;;0.52;0.20;;;;;;;;;;5052728;28;20052;-61
2021/11/04 06:36:11;;;;;;;0.52;0.20;;;;;;;;;;5052924;28;20100;-60
2021/11/04 06:38:36;;;;;;;1.75;0.08;;;;;;;;;;5052684;28;20367;-61
2021/11/04 06:41:01;;;;;;;1.80;0.47;;;;;;;;;;5052592;28;20143;-61
2021/11/04 06:43:27;;;;;;;1.02;0.20;;;;;;;;;;5052787;28;20376;-61
2021/11/04 06:45:52;;;;;;;0.57;0.10;;;;;;;;;;5052454;28;20020;-61
2021/11/04 06:48:26;;;;;;;1.88;0.20;;;;;;;;;;5054016;28;20025;-60
2021/11/04 06:50:55;;;;;;;1.98;0.22;;;;;;;;;;5056165;28;20017;-60
2021/11/04 06:53:21;;;;;;;0.28;0.10;;;;;;;;;;5056532;28;20017;-60
2021/11/04 06:55:47;;;;;;;0.55;0.10;;;;;;;;;;5056268;28;20059;-60
2021/11/04 06:58:14;;;;;;;1.35;0.10;;;;;;;;;;5056271;28;20021;-61
2021/11/04 07:00:41;;;;;;;1.60;0.25;;;;;;;;;;5055525;28;20028;-61
2021/11/04 07:03:13;;;;;;;0.75;0.10;;;;;;;;;;5056313;28;20059;-60
2021/11/04 07:05:38;;;;;;;0.25;0.10;;;;;;;;;;5052023;28;20063;-60
2021/11/04 07:08:04;;;;;;;0.32;0.00;;;;;;;;;;5047581;28;20033;-60
2021/11/04 07:10:30;;;;;;;1.88;0.10;;;;;;;;;;5053279;28;20510;-60
2021/11/04 07:12:55;;;;;;;0.75;0.10;;;;;;;;;;5047829;28;20068;-60
2021/11/04 07:15:21;;;;;;;0.20;0.05;;;;;;;;;;5036057;28;20139;-60
2021/11/04 07:17:47;;;;;;;0.38;0.00;;;;;;;;;;5042554;28;20467;-61
2021/11/04 07:20:14;;;;;;;0.55;0.10;;;;;;;;;;5055730;28;20017;-61
2021/11/04 07:22:45;;;;;;;1.17;0.20;;;;;;;;;;5053527;28;20021;-60
2021/11/04 07:25:12;;;;;;;2.13;0.10;;;;;;;;;;5041579;28;20019;-60
2021/11/04 07:27:37;;;;;;;0.98;0.08;;;;;;;;;;5036969;28;20017;-60
2021/11/04 07:30:07;;;;;;;0.77;0.10;;;;;;;;;;5050123;28;20490;-60
2021/11/04 07:32:32;;;;;;;1.75;0.10;;;;;;;;;;5042075;28;20118;-60
2021/11/04 07:34:58;;;;;;;0.55;0.03;;;;;;;;;;5041135;28;20428;-60
2021/11/04 07:37:25;;;;;;;1.98;0.22;;;;;;;;;;5047140;28;20021;-60
2021/11/04 07:39:50;;;;;;;0.98;0.10;;;;;;;;;;5054935;28;20048;-61
2021/11/04 07:42:15;;;;;;;1.88;0.10;;;;;;;;;;5040290;28;20468;-61
2021/11/04 07:44:40;;;;;;;0.60;0.22;;;;;;;;;;5051035;28;20383;-60
2021/11/04 07:47:07;;;;;;;3.77;0.60;;;;;;;;;;5056933;28;20455;-60
2021/11/04 07:49:32;;;;;;;1.80;0.22;;;;;;;;;;5048104;28;20266;-61
2021/11/04 07:52:00;;;;;;;1.42;0.03;;;;;;;;;;5044274;28;20036;-60
2021/11/04 07:54:26;;;;;;;1.30;0.20;;;;;;;;;;5035200;28;20431;-60
2021/11/04 07:56:51;;;;;;;1.08;0.32;;;;;;;;;;5053770;28;20013;-61
2021/11/04 07:59:17;;;;;;;1.38;0.10;;;;;;;;;;5055077;28;20361;-61
2021/11/04 08:01:42;;;;;;;1.10;0.10;;;;;;;;;;5054621;28;20072;-61
2021/11/04 08:04:07;;;;;;;0.35;0.20;;;;;;;;;;5055062;28;20021;-60
2021/11/04 08:06:32;;;;;;;0.60;0.10;;;;;;;;;;5038479;28;20022;-60
2021/11/04 08:08:58;;;;;;;1.70;0.20;;;;;;;;;;5038172;28;20372;-61
2021/11/04 08:11:23;;;;;;;0.50;0.05;;;;;;;;;;5035740;28;20098;-61
2021/11/04 08:13:48;;;;;;;1.33;0.20;;;;;;;;;;5035030;28;20029;-60
2021/11/04 08:16:13;;;;;;;0.57;0.25;;;;;;;;;;5041866;28;20268;-60
2021/11/04 08:18:38;;;;;;;1.23;0.13;;;;;;;;;;5054103;28;20025;-60
2021/11/04 08:21:04;;;;;;;0.98;0.00;;;;;;;;;;5041020;28;20105;-61
2021/11/04 08:23:29;;;;;;;0.15;0.00;;;;;;;;;;5034736;28;20022;-61
2021/11/04 08:25:54;;;;;;;2.60;0.50;;;;;;;;;;5034705;28;20028;-60
2021/11/04 08:28:20;;;;;;;0.90;0.13;;;;;;;;;;5046730;28;20017;-60
2021/11/04 08:30:46;;;;;;;1.85;0.35;;;;;;;;;;5041350;28;20021;-60
2021/11/04 08:33:11;;;;;;;0.75;0.10;;;;;;;;;;5041889;28;20021;-61
2021/11/04 08:35:36;;;;;;;0.10;0.10;;;;;;;;;;5052693;28;20020;-61
2021/11/04 08:38:01;;;;;;;1.52;0.22;;;;;;;;;;5053302;28;20041;-61
2021/11/04 08:40:27;;;;;;;1.08;0.20;;;;;;;;;;5054255;28;20032;-61
2021/11/04 08:42:52;;;;;;;1.08;0.10;;;;;;;;;;5039060;28;20487;-61
2021/11/04 08:45:19;;;;;;;1.55;0.15;;;;;;;;;;5034249;28;20018;-62
2021/11/04 08:47:44;;;;;;;0.30;0.15;;;;;;;;;;5040793;28;20054;-62
2021/11/04 08:50:10;;;;;;;0.50;0.20;;;;;;;;;;5034222;28;20025;-62
2021/11/04 08:52:36;;;;;;;1.65;0.15;;;;;;;;;;5048561;28;20078;-61
2021/11/04 08:55:03;;;;;;;2.28;0.20;;;;;;;;;;5052265;28;20024;-61
2021/11/04 08:57:28;;;;;;;1.05;0.15;;;;;;;;;;5048839;28;20025;-61
2021/11/04 08:59:53;;;;;;;2.15;0.17;;;;;;;;;;5041627;28;20482;-61
2021/11/04 09:02:19;;;;;;;0.38;0.10;;;;;;;;;;5052391;28;20499;-61
2021/11/04 09:04:45;;;;;;;1.80;0.20;;;;;;;;;;5052513;28;20021;-61
2021/11/04 09:07:14;;;;;;;0.22;0.22;;;;;;;;;;5054916;28;20039;-61
2021/11/04 09:09:39;;;;;;;1.73;0.40;;;;;;;;;;5063979;28;20017;-61
2021/11/04 09:12:05;;;;;;;1.02;0.30;;;;;;;;;;5071709;28;20116;-65
2021/11/04 09:14:30;;;;;;;0.70;0.13;;;;;;;;;;5072549;28;20351;-65
2021/11/04 09:16:56;;;;;;;1.42;0.80;;;;;;;;;;5054537;28;20458;-64
2021/11/04 09:19:21;;;;;;;2.63;0.30;;;;;;;;;;5053277;28;20029;-64
2021/11/04 09:21:46;;;;;;;0.70;0.40;;;;;;;;;;5053359;28;20021;-64
2021/11/04 09:24:12;;;;;;;0.75;0.30;;;;;;;;;;5053448;28;20384;-64
2021/11/04 09:26:37;;;;;;;1.25;0.38;;;;;;;;;;5053551;28;20021;-64
2021/11/04 09:29:03;;;;;;;0.47;0.30;;;;;;;;;;5053487;28;20367;-65
2021/11/04 09:31:28;;;;;;;1.23;0.40;;;;;;;;;;5053069;28;20034;-64
2021/11/04 09:33:57;;;;;;;1.42;0.60;;;;;;;;;;5053097;28;20620;-64
2021/11/04 09:36:25;;;;;;;0.25;0.20;;;;;;;;;;5053481;28;20017;-64
2021/11/04 09:38:51;;;;;;;1.35;0.38;;;;;;;;;;5053095;28;20043;-64
2021/11/04 09:41:16;;;;;;;1.77;0.40;;;;;;;;;;5053290;28;20527;-64
2021/11/04 09:43:42;;;;;;;1.23;0.30;;;;;;;;;;5053152;28;20067;-64
2021/11/04 09:46:08;;;;;;;1.70;0.28;;;;;;;;;;5053262;28;20035;-64
2021/11/04 09:48:36;;;;;;;0.40;0.28;;;;;;;;;;5053107;28;20024;-63
2021/11/04 09:51:02;;;;;;;0.82;0.40;;;;;;;;;;5051876;28;20013;-65
2021/11/04 09:53:27;;;;;;;2.00;0.68;;;;;;;;;;5053101;28;20017;-65
2021/11/04 09:55:53;;;;;;;0.45;0.20;;;;;;;;;;5050590;28;20030;-64
2021/11/04 09:58:19;;;;;;;1.58;0.20;;;;;;;;;;5043781;28;20021;-63
2021/11/04 10:00:44;;;;;;;1.55;0.28;;;;;;;;;;5032724;28;20018;-63
2021/11/04 10:03:10;;;;;;;1.90;0.30;;;;;;;;;;5048886;28;20020;-64
2021/11/04 10:05:49;;;;;;;1.52;0.20;;;;;;;;;;5053009;28;20013;-64
2021/11/04 10:08:16;;;;;;;0.52;0.17;;;;;;;;;;5033070;28;20373;-64
2021/11/04 10:10:42;;;;;;;0.38;0.20;;;;;;;;;;5032880;28;20021;-64
2021/11/04 10:13:08;;;;;;;1.27;0.20;;;;;;;;;;5033221;28;20017;-64
2021/11/04 10:15:35;;;;;;;1.02;0.30;;;;;;;;;;5050468;28;20021;-65
2021/11/04 10:18:20;;;;;;;1.17;0.20;;;;;;;;;;5052812;28;20032;-64
2021/11/04 10:21:04;;;;;;;0.35;0.10;;;;;;;;;;5052668;28;20016;-65
2021/11/04 10:23:36;;;;;;;1.65;0.38;;;;;;;;;;5054672;28;20024;-64
2021/11/04 10:26:06;;;;;;;0.82;0.65;;;;;;;;;;5056872;28;20064;-64
2021/11/04 10:28:31;;;;;;;1.05;0.10;;;;;;;;;;5056841;28;20378;-63
2021/11/04 10:30:57;;;;;;;1.17;0.30;;;;;;;;;;5056714;28;20502;-64
2021/11/04 10:33:24;;;;;;;1.02;0.63;;;;;;;;;;5056896;28;20017;-64
2021/11/04 10:36:01;;;;;;;1.67;0.20;;;;;;;;;;5056477;28;20371;-64
2021/11/04 10:38:31;;;;;;;1.88;0.17;;;;;;;;;;5056797;28;20013;-65
2021/11/04 10:40:56;;;;;;;0.38;0.20;;;;;;;;;;5056509;28;20020;-64
2021/11/04 10:43:21;;;;;;;3.53;0.38;;;;;;;;;;5056584;28;20017;-63
2021/11/04 10:45:56;;;;;;;2.22;0.52;;;;;;;;;;5056480;28;20043;-63
2021/11/04 10:48:22;;;;;;;1.23;0.25;;;;;;;;;;5056501;28;20406;-64
2021/11/04 10:50:47;;;;;;;1.73;0.52;;;;;;;;;;5056130;28;20047;-64
2021/11/04 10:53:15;;;;;;;1.35;0.20;;;;;;;;;;5056356;28;20062;-64
2021/11/04 10:55:41;;;;;;;1.60;0.10;;;;;;;;;;5056351;28;20021;-63
2021/11/04 10:58:24;;;;;;;1.27;0.20;;;;;;;;;;5056594;28;20024;-64
2021/11/04 11:00:50;;;;;;;1.50;0.30;;;;;;;;;;5055770;28;20017;-64
2021/11/04 11:03:15;;;;;;;0.93;0.63;;;;;;;;;;5056388;28;20033;-64
2021/11/04 11:05:43;;;;;;;0.88;0.20;;;;;;;;;;5056050;28;20017;-64
2021/11/04 11:08:09;;;;;;;0.68;0.20;;;;;;;;;;5056212;28;20017;-64
2021/11/04 11:10:35;;;;;;;0.93;0.25;;;;;;;;;;5055773;28;20371;-63
2021/11/04 11:13:02;;;;;;;1.17;0.20;;;;;;;;;;5055524;28;20078;-64
2021/11/04 11:15:28;;;;;;;0.80;0.20;;;;;;;;;;5055898;28;20021;-64
2021/11/04 11:17:54;;;;;;;1.60;0.40;;;;;;;;;;5055492;28;20096;-64
2021/11/04 11:20:20;;;;;;;2.05;0.20;;;;;;;;;;5055513;28;20122;-64
2021/11/04 11:22:46;;;;;;;0.82;0.20;;;;;;;;;;5055360;28;20055;-64
2021/11/04 11:25:12;;;;;;;3.05;0.50;;;;;;;;;;5055502;28;20024;-63
2021/11/04 11:27:37;;;;;;;0.90;0.30;;;;;;;;;;5055856;28;20021;-63
2021/11/04 11:30:12;;;;;;;1.60;0.40;;;;;;;;;;5055397;28;20025;-64
2021/11/04 11:32:38;;;;;;;0.85;0.10;;;;;;;;;;5055232;28;20024;-64
2021/11/04 11:35:09;;;;;;;0.75;0.15;;;;;;;;;;5055016;28;20025;-64
2021/11/04 11:37:34;;;;;;;1.55;0.10;;;;;;;;;;5055576;28;20025;-63
2021/11/04 11:40:10;;;;;;;0.15;0.13;;;;;;;;;;5055453;28;20070;-64
2021/11/04 11:42:36;;;;;;;1.45;0.47;;;;;;;;;;5055197;28;20063;-63
2021/11/04 11:45:11;;;;;;;1.10;0.60;;;;;;;;;;5048829;28;20112;-64
2021/11/04 11:47:39;;;;;;;1.33;0.30;;;;;;;;;;5047644;28;20025;-64
2021/11/04 11:50:25;;;;;;;2.33;0.30;;;;;;;;;;5053720;28;20040;-64
2021/11/04 11:53:00;;;;;;;0.98;0.00;;;;;;;;;;5054958;28;20021;-63
2021/11/04 11:55:42;;;;;;;0.52;0.10;;;;;;;;;;5037395;28;20045;-64
2021/11/04 11:58:16;;;;;;;0.75;0.00;;;;;;;;;;5035332;28;20021;-63
2021/11/04 12:01:01;;;;;;;1.77;0.20;;;;;;;;;;5034986;28;20109;-63
2021/11/04 12:03:29;;;;;;;0.57;0.10;;;;;;;;;;5036067;28;20124;-64
2021/11/04 12:05:54;;;;;;;0.28;0.20;;;;;;;;;;5035974;28;20368;-64
2021/11/04 12:08:20;;;;;;;0.47;0.15;;;;;;;;;;5045795;28;20028;-64
2021/11/04 12:10:46;;;;;;;1.77;0.20;;;;;;;;;;5035091;28;20436;-64
2021/11/04 12:13:37;;;;;;;2.22;0.68;;;;;;;;;;5047133;28;20037;-63
2021/11/04 12:16:23;;;;;;;0.95;0.03;;;;;;;;;;5053623;28;20399;-64
2021/11/04 12:18:53;;;;;;;0.90;0.20;;;;;;;;;;5054478;28;20528;-63
2021/11/04 12:21:19;;;;;;;0.30;0.00;;;;;;;;;;5054754;28;20101;-62
2021/11/04 12:23:44;;;;;;;0.88;0.10;;;;;;;;;;5049856;28;20013;-64
2021/11/04 12:26:09;;;;;;;0.80;0.05;;;;;;;;;;5045659;28;20021;-64
2021/11/04 12:28:41;;;;;;;0.20;0.20;;;;;;;;;;5039475;28;20101;-63
2021/11/04 12:31:14;;;;;;;1.23;0.40;;;;;;;;;;5045791;28;20041;-64
2021/11/04 12:33:39;;;;;;;0.75;0.30;;;;;;;;;;5057652;28;20039;-63
2021/11/04 12:36:04;;;;;;;0.52;0.00;;;;;;;;;;5062971;28;20016;-64
2021/11/04 12:38:40;;;;;;;0.03;0.00;;;;;;;;;;5074491;28;20523;-64
2021/11/04 12:41:05;;;;;;;0.93;0.10;;;;;;;;;;5074348;28;20047;-64
2021/11/04 12:43:32;;;;;;;0.80;0.20;;;;;;;;;;5074322;28;20048;-64
2021/11/04 12:46:18;;;;;;;0.85;0.10;;;;;;;;;;5072413;28;20372;-63
2021/11/04 12:48:48;;;;;;;0.43;0.17;;;;;;;;;;5033772;28;20105;-64
2021/11/04 12:51:14;;;;;;;0.20;0.10;;;;;;;;;;5050011;28;20513;-64
2021/11/04 12:54:09;;;;;;;2.85;0.85;;;;;;;;;;5053989;28;20025;-64
2021/11/04 12:56:49;;;;;;;1.27;0.10;;;;;;;;;;5052874;28;20028;-64
2021/11/04 12:59:31;;;;;;;1.67;0.17;;;;;;;;;;5052844;28;20028;-64
2021/11/04 13:01:58;;;;;;;2.60;0.10;;;;;;;;;;5068493;28;20436;-64
2021/11/04 13:04:30;;;;;;;0.73;0.10;;;;;;;;;;5071493;28;20016;-64
2021/11/04 13:06:56;;;;;;;0.63;0.10;;;;;;;;;;5071315;28;20029;-64
2021/11/04 13:09:23;;;;;;;1.25;0.30;;;;;;;;;;5071735;28;20104;-63
2021/11/04 13:12:01;;;;;;;0.50;0.13;;;;;;;;;;5071375;28;20036;-64
2021/11/04 13:14:27;;;;;;;0.93;0.20;;;;;;;;;;5071473;28;20554;-65
2021/11/04 13:16:52;;;;;;;0.93;0.20;;;;;;;;;;5071410;28;20103;-64
2021/11/04 13:19:24;;;;;;;1.17;0.17;;;;;;;;;;5071181;28;20107;-64
2021/11/04 13:21:49;;;;;;;0.40;0.10;;;;;;;;;;5071311;28;20025;-63
2021/11/04 13:24:16;;;;;;;0.50;0.10;;;;;;;;;;5071076;28;20024;-63
2021/11/04 13:26:41;;;;;;;0.30;0.20;;;;;;;;;;5071255;28;20067;-64
2021/11/04 13:29:07;;;;;;;1.27;0.30;;;;;;;;;;5071441;28;20024;-64
2021/11/04 13:31:33;;;;;;;1.52;0.10;;;;;;;;;;5071277;28;20028;-64
2021/11/04 13:34:00;;;;;;;1.92;0.57;;;;;;;;;;5018306;28;20040;-63
2021/11/04 13:36:27;;;;;;;0.90;0.13;;;;;;;;;;5013340;28;20113;-64
2021/11/04 13:38:54;;;;;;;0.82;0.13;;;;;;;;;;5025724;28;20018;-65
2021/11/04 13:41:26;;;;;;;2.60;0.60;;;;;;;;;;5033083;28;20047;-64
2021/11/04 13:43:52;;;;;;;3.10;0.10;;;;;;;;;;5033331;28;20415;-64
2021/11/04 13:46:18;;;;;;;1.27;0.20;;;;;;;;;;5033508;28;20021;-64
2021/11/04 13:48:50;;;;;;;1.05;0.20;;;;;;;;;;5033197;28;20022;-64
2021/11/04 13:51:27;;;;;;;0.52;0.20;;;;;;;;;;5033365;28;20025;-63
2021/11/04 13:54:05;;;;;;;0.93;0.10;;;;;;;;;;5031933;28;20071;-64
2021/11/04 13:56:30;;;;;;;0.55;0.05;;;;;;;;;;5033092;28;20030;-64
2021/11/04 13:58:55;;;;;;;1.63;0.15;;;;;;;;;;5033173;28;20025;-64
2021/11/04 14:01:20;;;;;;;1.57;0.20;;;;;;;;;;5037633;28;20529;-64
2021/11/04 14:04:03;;;;;;;0.37;0.20;;;;;;;;;;5052747;28;20268;-64
2021/11/04 14:06:38;;;;;;;0.63;0.13;;;;;;;;;;5053011;28;20254;-63
2021/11/04 14:09:03;;;;;;;2.10;0.13;;;;;;;;;;5053000;28;20067;-64
2021/11/04 14:11:29;;;;;;;0.93;0.10;;;;;;;;;;5053018;28;20020;-64
2021/11/04 14:13:56;;;;;;;0.47;0.08;;;;;;;;;;5052887;28;20053;-64
2021/11/04 14:16:22;;;;;;;1.20;0.20;;;;;;;;;;5052773;28;20024;-64
2021/11/04 14:18:48;;;;;;;1.60;0.22;;;;;;;;;;5036901;28;20022;-64
2021/11/04 14:21:13;;;;;;;0.25;0.08;;;;;;;;;;5032940;28;20079;-63
2021/11/04 14:23:38;;;;;;;2.42;0.38;;;;;;;;;;5033029;28;20039;-63
2021/11/04 14:26:03;;;;;;;1.05;0.10;;;;;;;;;;5031982;28;20072;-64
2021/11/04 14:28:28;;;;;;;1.30;0.50;;;;;;;;;;5033093;28;20504;-65
2021/11/04 14:30:54;;;;;;;6.82;0.43;;;;;;;;;;5032819;28;20051;-66
2021/11/04 14:33:20;;;;;;;0.85;0.20;;;;;;;;;;5034033;28;20093;-63
2021/11/04 14:35:46;;;;;;;1.00;0.15;;;;;;;;;;5032670;28;20024;-63
2021/11/04 14:38:11;;;;;;;0.73;0.10;;;;;;;;;;5032909;28;20029;-64
2021/11/04 14:40:36;;;;;;;1.48;0.20;;;;;;;;;;5032749;28;20017;-64
2021/11/04 14:43:01;;;;;;;0.60;0.20;;;;;;;;;;5034146;28;20055;-63